sensor_id;sensor_type;location;lat;lon;timestamp;temperature;humidity
20528;DHT22;23612;50.894;10.700;2023-08-08T00:02:07;11.60;99.90
20528;DHT22;23612;50.894;10.700;2023-08-08T00:04:33;11.60;99.90
20528;DHT22;23612;50.894;10.700;2023-08-08T00:06:59;11.60;99.90
20528;DHT22;23612;50.894;10.700;2023-08-08T00:09:24;11.50;99.90
20528;DHT22;23612;50.894;10.700;2023-08-08T00:11:50;11.50;99.90
20528;DHT22;23612;50.894;10.700;2023-08-08T00:14:15;11.50;99.90
20528;DHT22;23612;50.894;10.700;2023-08-08T00:16:41;11.50;99.90
20528;DHT22;23612;50.894;10.700;2023-08-08T00:19:07;11.50;99.90
20528;DHT22;23612;50.894;10.700;2023-08-08T00:21:33;11.40;99.90
20528;DHT22;23612;50.894;10.700;2023-08-08T00:23:58;11.40;99.90
20528;DHT22;23612;50.894;10.700;2023-08-08T00:26:24;11.40;99.90
20528;DHT22;23612;50.894;10.700;2023-08-08T00:28:49;11.40;99.90
20528;DHT22;23612;50.894;10.700;2023-08-08T00:31:15;11.40;99.90
20528;DHT22;23612;50.894;10.700;2023-08-08T00:33:43;11.30;99.90
20528;DHT22;23612;50.894;10.700;2023-08-08T00:36:08;11.30;99.90
20528;DHT22;23612;50.894;10.700;2023-08-08T00:38:33;11.20;99.90
20528;DHT22;23612;50.894;10.700;2023-08-08T00:40:59;11.10;99.90
20528;DHT22;23612;50.894;10.700;2023-08-08T00:43:25;11.10;99.90
20528;DHT22;23612;50.894;10.700;2023-08-08T00:45:50;11.00;99.90
20528;DHT22;23612;50.894;10.700;2023-08-08T00:48:16;11.00;99.90
20528;DHT22;23612;50.894;10.700;2023-08-08T00:50:43;11.00;99.90
20528;DHT22;23612;50.894;10.700;2023-08-08T00:53:10;11.00;99.90
20528;DHT22;23612;50.894;10.700;2023-08-08T00:55:35;11.00;99.90
20528;DHT22;23612;50.894;10.700;2023-08-08T00:58:01;11.00;99.90
20528;DHT22;23612;50.894;10.700;2023-08-08T01:00:26;11.10;99.90
20528;DHT22;23612;50.894;10.700;2023-08-08T01:02:52;11.20;99.90
20528;DHT22;23612;50.894;10.700;2023-08-08T01:05:18;11.20;99.90
20528;DHT22;23612;50.894;10.700;2023-08-08T01:10:16;11.30;99.90
20528;DHT22;23612;50.894;10.700;2023-08-08T01:12:50;11.30;99.90
20528;DHT22;23612;50.894;10.700;2023-08-08T01:15:17;11.40;99.90
20528;DHT22;23612;50.894;10.700;2023-08-08T01:17:44;11.50;99.90
20528;DHT22;23612;50.894;10.700;2023-08-08T01:20:11;11.50;99.90
20528;DHT22;23612;50.894;10.700;2023-08-08T01:23:09;11.60;99.90
20528;DHT22;23612;50.894;10.700;2023-08-08T01:25:29;11.60;99.90
20528;DHT22;23612;50.894;10.700;2023-08-08T01:27:55;11.60;99.90
20528;DHT22;23612;50.894;10.700;2023-08-08T01:30:21;11.60;99.90
20528;DHT22;23612;50.894;10.700;2023-08-08T01:32:46;11.60;99.90
20528;DHT22;23612;50.894;10.700;2023-08-08T01:35:12;11.60;99.90
20528;DHT22;23612;50.894;10.700;2023-08-08T01:37:52;11.60;99.90
20528;DHT22;23612;50.894;10.700;2023-08-08T01:40:19;11.60;99.90
20528;DHT22;23612;50.894;10.700;2023-08-08T01:42:47;11.60;99.90
20528;DHT22;23612;50.894;10.700;2023-08-08T01:45:14;11.50;99.90
20528;DHT22;23612;50.894;10.700;2023-08-08T01:47:40;11.50;99.90
20528;DHT22;23612;50.894;10.700;2023-08-08T01:50:07;11.50;99.90
20528;DHT22;23612;50.894;10.700;2023-08-08T01:52:33;11.50;99.90
20528;DHT22;23612;50.894;10.700;2023-08-08T01:54:58;11.40;99.90
20528;DHT22;23612;50.894;10.700;2023-08-08T01:57:23;11.40;99.90
20528;DHT22;23612;50.894;10.700;2023-08-08T01:59:49;11.40;99.90
20528;DHT22;23612;50.894;10.700;2023-08-08T02:02:15;11.30;99.90
20528;DHT22;23612;50.894;10.700;2023-08-08T02:04:42;11.40;99.90
20528;DHT22;23612;50.894;10.700;2023-08-08T02:07:08;11.40;99.90
20528;DHT22;23612;50.894;10.700;2023-08-08T02:09:33;11.40;99.90
20528;DHT22;23612;50.894;10.700;2023-08-08T02:11:59;11.40;99.90
20528;DHT22;23612;50.894;10.700;2023-08-08T02:14:24;11.40;99.90
20528;DHT22;23612;50.894;10.700;2023-08-08T02:16:50;11.40;99.90
20528;DHT22;23612;50.894;10.700;2023-08-08T02:19:15;11.40;99.90
20528;DHT22;23612;50.894;10.700;2023-08-08T02:21:41;11.40;99.90
20528;DHT22;23612;50.894;10.700;2023-08-08T02:24:06;11.40;99.90
20528;DHT22;23612;50.894;10.700;2023-08-08T02:26:32;11.40;99.90
20528;DHT22;23612;50.894;10.700;2023-08-08T02:28:58;11.40;99.90
20528;DHT22;23612;50.894;10.700;2023-08-08T02:31:23;11.30;99.90
20528;DHT22;23612;50.894;10.700;2023-08-08T02:33:49;11.30;99.90
20528;DHT22;23612;50.894;10.700;2023-08-08T02:36:18;11.20;99.90
20528;DHT22;23612;50.894;10.700;2023-08-08T02:38:44;11.20;99.90
20528;DHT22;23612;50.894;10.700;2023-08-08T02:41:09;11.20;99.90
20528;DHT22;23612;50.894;10.700;2023-08-08T02:43:35;11.10;99.90
20528;DHT22;23612;50.894;10.700;2023-08-08T02:46:00;11.10;99.90
20528;DHT22;23612;50.894;10.700;2023-08-08T02:48:27;11.10;99.90
20528;DHT22;23612;50.894;10.700;2023-08-08T02:50:52;11.10;99.90
20528;DHT22;23612;50.894;10.700;2023-08-08T02:53:18;11.10;99.90
20528;DHT22;23612;50.894;10.700;2023-08-08T02:55:43;11.20;99.90
20528;DHT22;23612;50.894;10.700;2023-08-08T02:58:09;11.20;99.90
20528;DHT22;23612;50.894;10.700;2023-08-08T03:00:34;11.30;99.90
20528;DHT22;23612;50.894;10.700;2023-08-08T03:03:00;11.30;99.90
20528;DHT22;23612;50.894;10.700;2023-08-08T03:05:25;11.30;99.90
20528;DHT22;23612;50.894;10.700;2023-08-08T03:07:51;11.50;99.90
20528;DHT22;23612;50.894;10.700;2023-08-08T03:10:16;11.50;99.90
20528;DHT22;23612;50.894;10.700;2023-08-08T03:12:42;11.60;99.90
20528;DHT22;23612;50.894;10.700;2023-08-08T03:15:08;11.70;99.90
20528;DHT22;23612;50.894;10.700;2023-08-08T03:17:33;11.70;99.90
20528;DHT22;23612;50.894;10.700;2023-08-08T03:20:00;11.70;99.90
20528;DHT22;23612;50.894;10.700;2023-08-08T03:22:26;11.80;99.90
20528;DHT22;23612;50.894;10.700;2023-08-08T03:24:51;11.80;99.90
20528;DHT22;23612;50.894;10.700;2023-08-08T03:27:17;11.90;99.90
20528;DHT22;23612;50.894;10.700;2023-08-08T03:29:42;11.90;99.90
20528;DHT22;23612;50.894;10.700;2023-08-08T03:32:07;12.00;99.90
20528;DHT22;23612;50.894;10.700;2023-08-08T03:34:33;12.00;99.90
20528;DHT22;23612;50.894;10.700;2023-08-08T03:36:59;12.00;99.90
20528;DHT22;23612;50.894;10.700;2023-08-08T03:39:25;12.00;99.90
20528;DHT22;23612;50.894;10.700;2023-08-08T03:41:50;12.00;99.90
20528;DHT22;23612;50.894;10.700;2023-08-08T03:44:16;12.10;99.90
20528;DHT22;23612;50.894;10.700;2023-08-08T03:46:41;12.00;99.90
20528;DHT22;23612;50.894;10.700;2023-08-08T03:49:07;12.10;99.90
20528;DHT22;23612;50.894;10.700;2023-08-08T03:51:33;12.10;99.90
20528;DHT22;23612;50.894;10.700;2023-08-08T03:53:58;12.10;99.90
20528;DHT22;23612;50.894;10.700;2023-08-08T03:56:24;12.10;99.90
20528;DHT22;23612;50.894;10.700;2023-08-08T03:58:49;12.10;99.90
20528;DHT22;23612;50.894;10.700;2023-08-08T04:01:15;12.20;99.90
20528;DHT22;23612;50.894;10.700;2023-08-08T04:03:40;12.30;99.90
20528;DHT22;23612;50.894;10.700;2023-08-08T04:06:06;12.30;99.90
20528;DHT22;23612;50.894;10.700;2023-08-08T04:08:31;12.30;99.90
20528;DHT22;23612;50.894;10.700;2023-08-08T04:10:58;12.30;99.90
20528;DHT22;23612;50.894;10.700;2023-08-08T04:13:23;12.40;99.90
20528;DHT22;23612;50.894;10.700;2023-08-08T04:15:49;12.30;99.90
20528;DHT22;23612;50.894;10.700;2023-08-08T04:18:17;12.40;99.90
20528;DHT22;23612;50.894;10.700;2023-08-08T04:20:45;12.40;99.90
20528;DHT22;23612;50.894;10.700;2023-08-08T04:23:11;12.40;99.90
20528;DHT22;23612;50.894;10.700;2023-08-08T04:25:36;12.40;99.90
20528;DHT22;23612;50.894;10.700;2023-08-08T04:28:02;12.50;99.90
20528;DHT22;23612;50.894;10.700;2023-08-08T04:30:27;12.50;99.90
20528;DHT22;23612;50.894;10.700;2023-08-08T04:32:53;12.50;99.90
20528;DHT22;23612;50.894;10.700;2023-08-08T04:35:18;12.50;99.90
20528;DHT22;23612;50.894;10.700;2023-08-08T04:37:44;12.50;99.90
20528;DHT22;23612;50.894;10.700;2023-08-08T04:40:10;12.50;99.90
20528;DHT22;23612;50.894;10.700;2023-08-08T04:42:35;12.50;99.90
20528;DHT22;23612;50.894;10.700;2023-08-08T04:45:01;12.60;99.90
20528;DHT22;23612;50.894;10.700;2023-08-08T04:47:26;12.50;99.90
20528;DHT22;23612;50.894;10.700;2023-08-08T04:49:52;12.60;99.90
20528;DHT22;23612;50.894;10.700;2023-08-08T04:52:17;12.60;99.90
20528;DHT22;23612;50.894;10.700;2023-08-08T04:54:43;12.60;99.90
20528;DHT22;23612;50.894;10.700;2023-08-08T04:57:09;12.60;99.90
20528;DHT22;23612;50.894;10.700;2023-08-08T04:59:35;12.70;99.90
20528;DHT22;23612;50.894;10.700;2023-08-08T05:02:00;12.70;99.90
20528;DHT22;23612;50.894;10.700;2023-08-08T05:04:26;12.80;99.90
20528;DHT22;23612;50.894;10.700;2023-08-08T05:06:51;12.80;99.90
20528;DHT22;23612;50.894;10.700;2023-08-08T05:09:17;12.90;99.90
20528;DHT22;23612;50.894;10.700;2023-08-08T05:11:42;12.90;99.90
20528;DHT22;23612;50.894;10.700;2023-08-08T05:14:08;13.00;99.90
20528;DHT22;23612;50.894;10.700;2023-08-08T05:16:33;13.10;99.90
20528;DHT22;23612;50.894;10.700;2023-08-08T05:18:59;13.10;99.90
20528;DHT22;23612;50.894;10.700;2023-08-08T05:21:25;13.10;99.90
20528;DHT22;23612;50.894;10.700;2023-08-08T05:23:50;13.20;99.90
20528;DHT22;23612;50.894;10.700;2023-08-08T05:26:15;13.20;99.90
20528;DHT22;23612;50.894;10.700;2023-08-08T05:28:41;13.20;99.90
20528;DHT22;23612;50.894;10.700;2023-08-08T05:31:07;13.10;99.90
20528;DHT22;23612;50.894;10.700;2023-08-08T05:33:32;13.20;99.90
20528;DHT22;23612;50.894;10.700;2023-08-08T05:35:58;13.20;99.90
20528;DHT22;23612;50.894;10.700;2023-08-08T05:38:24;13.40;99.90
20528;DHT22;23612;50.894;10.700;2023-08-08T05:40:49;13.40;99.90
20528;DHT22;23612;50.894;10.700;2023-08-08T05:43:15;13.50;99.90
20528;DHT22;23612;50.894;10.700;2023-08-08T05:45:44;13.60;99.90
20528;DHT22;23612;50.894;10.700;2023-08-08T05:48:09;13.70;99.90
20528;DHT22;23612;50.894;10.700;2023-08-08T05:50:38;13.80;99.90
20528;DHT22;23612;50.894;10.700;2023-08-08T05:53:03;13.90;99.90
20528;DHT22;23612;50.894;10.700;2023-08-08T05:55:29;14.00;99.90
20528;DHT22;23612;50.894;10.700;2023-08-08T05:57:54;14.10;99.90
20528;DHT22;23612;50.894;10.700;2023-08-08T06:00:20;14.10;99.90
20528;DHT22;23612;50.894;10.700;2023-08-08T06:02:46;14.10;99.90
20528;DHT22;23612;50.894;10.700;2023-08-08T06:05:11;14.10;99.90
20528;DHT22;23612;50.894;10.700;2023-08-08T06:07:37;14.00;99.90
20528;DHT22;23612;50.894;10.700;2023-08-08T06:10:04;14.00;99.90
20528;DHT22;23612;50.894;10.700;2023-08-08T06:12:29;14.00;99.90
20528;DHT22;23612;50.894;10.700;2023-08-08T06:14:55;14.00;99.90
20528;DHT22;23612;50.894;10.700;2023-08-08T06:17:20;14.00;99.90
20528;DHT22;23612;50.894;10.700;2023-08-08T06:19:46;14.00;99.90
20528;DHT22;23612;50.894;10.700;2023-08-08T06:22:11;14.00;99.90
20528;DHT22;23612;50.894;10.700;2023-08-08T06:24:37;14.00;99.90
20528;DHT22;23612;50.894;10.700;2023-08-08T06:27:04;13.90;99.90
20528;DHT22;23612;50.894;10.700;2023-08-08T06:29:30;13.90;99.90
20528;DHT22;23612;50.894;10.700;2023-08-08T06:31:56;14.00;99.90
20528;DHT22;23612;50.894;10.700;2023-08-08T06:34:21;14.20;99.90
20528;DHT22;23612;50.894;10.700;2023-08-08T06:36:47;14.70;99.90
20528;DHT22;23612;50.894;10.700;2023-08-08T06:39:12;15.70;99.90
20528;DHT22;23612;50.894;10.700;2023-08-08T06:41:38;16.90;99.90
20528;DHT22;23612;50.894;10.700;2023-08-08T06:44:04;17.90;99.90
20528;DHT22;23612;50.894;10.700;2023-08-08T06:46:30;18.70;99.90
20528;DHT22;23612;50.894;10.700;2023-08-08T06:48:55;19.40;99.90
20528;DHT22;23612;50.894;10.700;2023-08-08T06:51:25;19.10;99.90
20528;DHT22;23612;50.894;10.700;2023-08-08T06:53:51;18.70;99.90
20528;DHT22;23612;50.894;10.700;2023-08-08T06:56:16;18.20;99.90
20528;DHT22;23612;50.894;10.700;2023-08-08T06:58:42;17.50;99.90
20528;DHT22;23612;50.894;10.700;2023-08-08T07:01:08;17.10;99.90
20528;DHT22;23612;50.894;10.700;2023-08-08T07:03:35;16.50;99.90
20528;DHT22;23612;50.894;10.700;2023-08-08T07:06:00;16.20;99.90
20528;DHT22;23612;50.894;10.700;2023-08-08T07:08:26;16.10;99.90
20528;DHT22;23612;50.894;10.700;2023-08-08T07:10:52;16.20;99.90
20528;DHT22;23612;50.894;10.700;2023-08-08T07:13:17;16.40;99.90
20528;DHT22;23612;50.894;10.700;2023-08-08T07:15:43;16.80;99.90
20528;DHT22;23612;50.894;10.700;2023-08-08T07:18:08;17.00;99.90
20528;DHT22;23612;50.894;10.700;2023-08-08T07:20:34;16.70;99.90
20528;DHT22;23612;50.894;10.700;2023-08-08T07:23:00;16.40;99.90
20528;DHT22;23612;50.894;10.700;2023-08-08T07:25:26;16.40;99.90
20528;DHT22;23612;50.894;10.700;2023-08-08T07:27:52;16.60;99.90
20528;DHT22;23612;50.894;10.700;2023-08-08T07:30:18;16.70;99.90
20528;DHT22;23612;50.894;10.700;2023-08-08T07:32:43;16.50;99.90
20528;DHT22;23612;50.894;10.700;2023-08-08T07:35:09;16.30;99.90
20528;DHT22;23612;50.894;10.700;2023-08-08T07:37:36;16.20;99.90
20528;DHT22;23612;50.894;10.700;2023-08-08T07:40:02;16.00;99.90
20528;DHT22;23612;50.894;10.700;2023-08-08T07:42:29;15.90;99.90
20528;DHT22;23612;50.894;10.700;2023-08-08T07:44:54;15.80;99.90
20528;DHT22;23612;50.894;10.700;2023-08-08T07:47:20;16.00;99.90
20528;DHT22;23612;50.894;10.700;2023-08-08T07:49:45;16.20;99.90
20528;DHT22;23612;50.894;10.700;2023-08-08T07:52:11;16.20;99.90
20528;DHT22;23612;50.894;10.700;2023-08-08T07:54:36;16.40;99.90
20528;DHT22;23612;50.894;10.700;2023-08-08T07:57:02;16.70;99.90
20528;DHT22;23612;50.894;10.700;2023-08-08T07:59:28;17.00;99.90
20528;DHT22;23612;50.894;10.700;2023-08-08T08:01:53;17.20;99.90
20528;DHT22;23612;50.894;10.700;2023-08-08T08:04:19;17.40;99.90
20528;DHT22;23612;50.894;10.700;2023-08-08T08:06:44;17.40;99.90
20528;DHT22;23612;50.894;10.700;2023-08-08T08:09:10;17.30;99.90
20528;DHT22;23612;50.894;10.700;2023-08-08T08:11:35;17.00;99.90
20528;DHT22;23612;50.894;10.700;2023-08-08T08:14:01;16.70;99.90
20528;DHT22;23612;50.894;10.700;2023-08-08T08:16:27;16.60;99.90
20528;DHT22;23612;50.894;10.700;2023-08-08T08:18:52;16.50;99.90
20528;DHT22;23612;50.894;10.700;2023-08-08T08:21:18;16.50;99.90
20528;DHT22;23612;50.894;10.700;2023-08-08T08:23:43;16.40;99.90
20528;DHT22;23612;50.894;10.700;2023-08-08T08:26:09;16.30;99.90
20528;DHT22;23612;50.894;10.700;2023-08-08T08:28:35;16.40;99.90
20528;DHT22;23612;50.894;10.700;2023-08-08T08:31:07;16.50;99.90
20528;DHT22;23612;50.894;10.700;2023-08-08T08:33:33;16.50;99.90
20528;DHT22;23612;50.894;10.700;2023-08-08T08:35:58;16.60;99.90
20528;DHT22;23612;50.894;10.700;2023-08-08T08:38:24;16.70;99.90
20528;DHT22;23612;50.894;10.700;2023-08-08T08:40:51;16.60;99.90
20528;DHT22;23612;50.894;10.700;2023-08-08T08:43:17;16.60;99.90
20528;DHT22;23612;50.894;10.700;2023-08-08T08:45:48;16.60;99.90
20528;DHT22;23612;50.894;10.700;2023-08-08T08:48:15;16.70;99.90
20528;DHT22;23612;50.894;10.700;2023-08-08T08:50:41;16.80;99.90
20528;DHT22;23612;50.894;10.700;2023-08-08T08:53:09;16.80;99.90
20528;DHT22;23612;50.894;10.700;2023-08-08T08:55:35;17.00;99.90
20528;DHT22;23612;50.894;10.700;2023-08-08T08:58:01;17.10;99.90
20528;DHT22;23612;50.894;10.700;2023-08-08T09:00:27;17.40;99.90
20528;DHT22;23612;50.894;10.700;2023-08-08T09:02:53;17.80;99.90
20528;DHT22;23612;50.894;10.700;2023-08-08T09:05:20;18.30;99.90
20528;DHT22;23612;50.894;10.700;2023-08-08T09:07:47;18.90;99.90
20528;DHT22;23612;50.894;10.700;2023-08-08T09:10:15;19.50;99.90
20528;DHT22;23612;50.894;10.700;2023-08-08T09:12:41;20.20;99.90
20528;DHT22;23612;50.894;10.700;2023-08-08T09:15:07;21.10;99.90
20528;DHT22;23612;50.894;10.700;2023-08-08T09:17:33;22.10;99.90
20528;DHT22;23612;50.894;10.700;2023-08-08T09:19:58;22.90;99.90
20528;DHT22;23612;50.894;10.700;2023-08-08T09:22:24;23.30;99.90
20528;DHT22;23612;50.894;10.700;2023-08-08T09:24:52;23.70;99.90
20528;DHT22;23612;50.894;10.700;2023-08-08T09:27:18;24.30;99.90
20528;DHT22;23612;50.894;10.700;2023-08-08T09:29:43;24.60;99.90
20528;DHT22;23612;50.894;10.700;2023-08-08T09:32:09;24.80;99.90
20528;DHT22;23612;50.894;10.700;2023-08-08T09:34:35;24.60;99.00
20528;DHT22;23612;50.894;10.700;2023-08-08T09:37:01;24.50;99.90
20528;DHT22;23612;50.894;10.700;2023-08-08T09:39:28;25.10;99.30
20528;DHT22;23612;50.894;10.700;2023-08-08T09:41:55;24.80;97.90
20528;DHT22;23612;50.894;10.700;2023-08-08T09:44:27;24.70;98.00
20528;DHT22;23612;50.894;10.700;2023-08-08T09:46:55;24.40;96.30
20528;DHT22;23612;50.894;10.700;2023-08-08T09:49:22;24.30;97.30
20528;DHT22;23612;50.894;10.700;2023-08-08T09:51:49;25.00;96.30
20528;DHT22;23612;50.894;10.700;2023-08-08T09:54:15;25.50;95.80
20528;DHT22;23612;50.894;10.700;2023-08-08T09:56:42;25.00;96.30
20528;DHT22;23612;50.894;10.700;2023-08-08T09:59:09;24.20;96.50
20528;DHT22;23612;50.894;10.700;2023-08-08T10:01:35;23.90;97.30
20528;DHT22;23612;50.894;10.700;2023-08-08T10:04:06;23.40;98.40
20528;DHT22;23612;50.894;10.700;2023-08-08T10:06:32;22.80;99.30
20528;DHT22;23612;50.894;10.700;2023-08-08T10:08:57;22.40;99.90
20528;DHT22;23612;50.894;10.700;2023-08-08T10:11:24;21.90;99.90
20528;DHT22;23612;50.894;10.700;2023-08-08T10:13:52;21.30;99.90
20528;DHT22;23612;50.894;10.700;2023-08-08T10:16:18;20.90;99.90
20528;DHT22;23612;50.894;10.700;2023-08-08T10:18:45;20.40;99.90
20528;DHT22;23612;50.894;10.700;2023-08-08T10:21:12;20.00;99.90
20528;DHT22;23612;50.894;10.700;2023-08-08T10:23:39;19.90;99.90
20528;DHT22;23612;50.894;10.700;2023-08-08T10:26:16;19.60;99.90
20528;DHT22;23612;50.894;10.700;2023-08-08T10:28:55;19.50;99.90
20528;DHT22;23612;50.894;10.700;2023-08-08T10:31:21;19.80;99.90
20528;DHT22;23612;50.894;10.700;2023-08-08T10:33:47;20.60;99.90
20528;DHT22;23612;50.894;10.700;2023-08-08T10:36:13;22.00;99.90
20528;DHT22;23612;50.894;10.700;2023-08-08T10:38:40;23.40;99.90
20528;DHT22;23612;50.894;10.700;2023-08-08T10:41:09;24.40;99.90
20528;DHT22;23612;50.894;10.700;2023-08-08T10:43:35;25.00;99.90
20528;DHT22;23612;50.894;10.700;2023-08-08T10:46:02;24.40;98.00
20528;DHT22;23612;50.894;10.700;2023-08-08T10:48:27;23.80;98.80
20528;DHT22;23612;50.894;10.700;2023-08-08T10:51:00;22.70;99.90
20528;DHT22;23612;50.894;10.700;2023-08-08T10:53:29;21.40;99.90
20528;DHT22;23612;50.894;10.700;2023-08-08T10:56:03;20.40;99.90
20528;DHT22;23612;50.894;10.700;2023-08-08T10:58:40;19.80;99.90
20528;DHT22;23612;50.894;10.700;2023-08-08T11:01:06;20.50;99.90
20528;DHT22;23612;50.894;10.700;2023-08-08T11:03:37;21.70;99.90
20528;DHT22;23612;50.894;10.700;2023-08-08T11:06:03;22.50;99.90
20528;DHT22;23612;50.894;10.700;2023-08-08T11:08:30;22.20;99.90
20528;DHT22;23612;50.894;10.700;2023-08-08T11:10:56;21.30;99.90
20528;DHT22;23612;50.894;10.700;2023-08-08T11:13:22;20.70;99.90
20528;DHT22;23612;50.894;10.700;2023-08-08T11:15:48;20.30;99.90
20528;DHT22;23612;50.894;10.700;2023-08-08T11:18:13;19.90;99.90
20528;DHT22;23612;50.894;10.700;2023-08-08T11:20:39;19.60;99.90
20528;DHT22;23612;50.894;10.700;2023-08-08T11:23:05;19.50;99.90
20528;DHT22;23612;50.894;10.700;2023-08-08T11:25:35;19.50;99.90
20528;DHT22;23612;50.894;10.700;2023-08-08T11:28:01;19.30;99.90
20528;DHT22;23612;50.894;10.700;2023-08-08T11:30:32;19.10;99.90
20528;DHT22;23612;50.894;10.700;2023-08-08T11:32:59;19.10;99.90
20528;DHT22;23612;50.894;10.700;2023-08-08T11:35:25;19.80;99.90
20528;DHT22;23612;50.894;10.700;2023-08-08T11:37:53;20.10;99.90
20528;DHT22;23612;50.894;10.700;2023-08-08T11:40:19;20.00;99.90
20528;DHT22;23612;50.894;10.700;2023-08-08T11:42:45;19.60;99.90
20528;DHT22;23612;50.894;10.700;2023-08-08T11:45:12;19.20;99.90
20528;DHT22;23612;50.894;10.700;2023-08-08T11:47:39;19.20;99.90
20528;DHT22;23612;50.894;10.700;2023-08-08T11:50:06;19.00;99.90
20528;DHT22;23612;50.894;10.700;2023-08-08T11:52:39;18.90;99.90
20528;DHT22;23612;50.894;10.700;2023-08-08T11:55:06;18.80;99.90
20528;DHT22;23612;50.894;10.700;2023-08-08T11:57:32;18.70;99.90
20528;DHT22;23612;50.894;10.700;2023-08-08T11:59:58;18.70;99.90
20528;DHT22;23612;50.894;10.700;2023-08-08T12:02:26;18.70;99.90
20528;DHT22;23612;50.894;10.700;2023-08-08T12:04:52;18.80;99.90
20528;DHT22;23612;50.894;10.700;2023-08-08T12:07:17;19.30;99.90
20528;DHT22;23612;50.894;10.700;2023-08-08T12:09:47;20.00;99.90
20528;DHT22;23612;50.894;10.700;2023-08-08T12:12:13;20.20;99.90
20528;DHT22;23612;50.894;10.700;2023-08-08T12:14:39;20.00;99.90
20528;DHT22;23612;50.894;10.700;2023-08-08T12:17:05;19.60;99.90
20528;DHT22;23612;50.894;10.700;2023-08-08T12:19:31;19.00;99.90
20528;DHT22;23612;50.894;10.700;2023-08-08T12:21:56;18.60;99.90
20528;DHT22;23612;50.894;10.700;2023-08-08T12:24:22;18.30;99.90
20528;DHT22;23612;50.894;10.700;2023-08-08T12:26:47;18.00;99.90
20528;DHT22;23612;50.894;10.700;2023-08-08T12:29:13;17.90;99.90
20528;DHT22;23612;50.894;10.700;2023-08-08T12:31:39;17.70;99.90
20528;DHT22;23612;50.894;10.700;2023-08-08T12:34:05;17.80;99.90
20528;DHT22;23612;50.894;10.700;2023-08-08T12:36:30;17.70;99.90
20528;DHT22;23612;50.894;10.700;2023-08-08T12:38:56;17.70;99.90
20528;DHT22;23612;50.894;10.700;2023-08-08T12:41:23;17.70;99.90
20528;DHT22;23612;50.894;10.700;2023-08-08T12:43:50;17.80;99.90
20528;DHT22;23612;50.894;10.700;2023-08-08T12:46:16;17.90;99.90
20528;DHT22;23612;50.894;10.700;2023-08-08T12:48:41;17.90;99.90
20528;DHT22;23612;50.894;10.700;2023-08-08T12:51:08;17.90;99.90
20528;DHT22;23612;50.894;10.700;2023-08-08T12:53:34;17.90;99.90
20528;DHT22;23612;50.894;10.700;2023-08-08T12:56:00;17.80;99.90
20528;DHT22;23612;50.894;10.700;2023-08-08T12:58:26;17.90;99.90
20528;DHT22;23612;50.894;10.700;2023-08-08T13:00:51;17.90;99.90
20528;DHT22;23612;50.894;10.700;2023-08-08T13:03:17;17.90;99.90
20528;DHT22;23612;50.894;10.700;2023-08-08T13:05:43;17.80;99.90
20528;DHT22;23612;50.894;10.700;2023-08-08T13:08:08;17.70;99.90
20528;DHT22;23612;50.894;10.700;2023-08-08T13:10:35;17.50;99.90
20528;DHT22;23612;50.894;10.700;2023-08-08T13:13:01;17.20;99.90
20528;DHT22;23612;50.894;10.700;2023-08-08T13:15:26;17.20;99.90
20528;DHT22;23612;50.894;10.700;2023-08-08T13:17:52;17.10;99.90
20528;DHT22;23612;50.894;10.700;2023-08-08T13:20:17;17.10;99.90
20528;DHT22;23612;50.894;10.700;2023-08-08T13:22:43;16.80;99.90
20528;DHT22;23612;50.894;10.700;2023-08-08T13:25:08;16.70;99.90
20528;DHT22;23612;50.894;10.700;2023-08-08T13:27:34;16.50;99.90
20528;DHT22;23612;50.894;10.700;2023-08-08T13:30:00;16.50;99.90
20528;DHT22;23612;50.894;10.700;2023-08-08T13:32:25;16.50;99.90
20528;DHT22;23612;50.894;10.700;2023-08-08T13:34:51;16.30;99.90
20528;DHT22;23612;50.894;10.700;2023-08-08T13:37:16;16.20;99.90
20528;DHT22;23612;50.894;10.700;2023-08-08T13:39:42;16.20;99.90
20528;DHT22;23612;50.894;10.700;2023-08-08T13:42:09;16.10;99.90
20528;DHT22;23612;50.894;10.700;2023-08-08T13:44:34;16.00;99.90
20528;DHT22;23612;50.894;10.700;2023-08-08T13:47:00;16.10;99.90
20528;DHT22;23612;50.894;10.700;2023-08-08T13:49:26;16.20;99.90
20528;DHT22;23612;50.894;10.700;2023-08-08T13:51:53;16.20;99.90
20528;DHT22;23612;50.894;10.700;2023-08-08T13:54:19;16.30;99.90
20528;DHT22;23612;50.894;10.700;2023-08-08T13:56:44;16.30;99.90
20528;DHT22;23612;50.894;10.700;2023-08-08T13:59:10;16.40;99.90
20528;DHT22;23612;50.894;10.700;2023-08-08T14:01:35;16.30;99.90
20528;DHT22;23612;50.894;10.700;2023-08-08T14:04:01;16.30;99.90
20528;DHT22;23612;50.894;10.700;2023-08-08T14:06:27;16.20;99.90
20528;DHT22;23612;50.894;10.700;2023-08-08T14:08:52;16.20;99.90
20528;DHT22;23612;50.894;10.700;2023-08-08T14:11:18;16.30;99.90
20528;DHT22;23612;50.894;10.700;2023-08-08T14:13:43;16.30;99.90
20528;DHT22;23612;50.894;10.700;2023-08-08T14:16:09;16.30;99.90
20528;DHT22;23612;50.894;10.700;2023-08-08T14:18:35;16.40;99.90
20528;DHT22;23612;50.894;10.700;2023-08-08T14:21:00;16.50;99.90
20528;DHT22;23612;50.894;10.700;2023-08-08T14:23:28;16.50;99.90
20528;DHT22;23612;50.894;10.700;2023-08-08T14:25:53;16.40;99.90
20528;DHT22;23612;50.894;10.700;2023-08-08T14:28:19;16.40;99.90
20528;DHT22;23612;50.894;10.700;2023-08-08T14:30:45;16.30;99.90
20528;DHT22;23612;50.894;10.700;2023-08-08T14:33:15;16.00;99.90
20528;DHT22;23612;50.894;10.700;2023-08-08T14:35:41;15.70;99.90
20528;DHT22;23612;50.894;10.700;2023-08-08T14:38:07;15.60;99.90
20528;DHT22;23612;50.894;10.700;2023-08-08T14:40:32;15.60;99.90
20528;DHT22;23612;50.894;10.700;2023-08-08T14:43:00;15.60;99.90
20528;DHT22;23612;50.894;10.700;2023-08-08T14:45:25;15.60;99.90
20528;DHT22;23612;50.894;10.700;2023-08-08T14:47:51;15.70;99.90
20528;DHT22;23612;50.894;10.700;2023-08-08T14:50:17;15.70;99.90
20528;DHT22;23612;50.894;10.700;2023-08-08T14:52:42;15.70;99.90
20528;DHT22;23612;50.894;10.700;2023-08-08T14:55:08;15.70;99.90
20528;DHT22;23612;50.894;10.700;2023-08-08T14:57:34;15.70;99.90
20528;DHT22;23612;50.894;10.700;2023-08-08T15:00:00;15.80;99.90
20528;DHT22;23612;50.894;10.700;2023-08-08T15:02:26;15.90;99.90
20528;DHT22;23612;50.894;10.700;2023-08-08T15:04:52;16.00;99.90
20528;DHT22;23612;50.894;10.700;2023-08-08T15:07:18;16.00;99.90
20528;DHT22;23612;50.894;10.700;2023-08-08T15:09:44;16.00;99.90
20528;DHT22;23612;50.894;10.700;2023-08-08T15:12:09;15.90;99.90